createdAt,value
2022-09-06T00:01:15.275Z,8.50
2022-09-06T00:03:43.055Z,7.82
2022-09-06T00:06:13.894Z,7.78
2022-09-06T00:08:42.777Z,7.80
2022-09-06T00:11:13.650Z,8.57
2022-09-06T00:13:41.242Z,8.60
2022-09-06T00:16:17.617Z,7.85
2022-09-06T00:18:45.397Z,7.63
2022-09-06T00:21:16.119Z,8.15
2022-09-06T00:23:43.844Z,7.50
2022-09-06T00:26:11.152Z,7.70
2022-09-06T00:28:39.263Z,9.10
2022-09-06T00:31:11.926Z,9.48
2022-09-06T00:33:39.862Z,10.63
2022-09-06T00:36:07.733Z,11.32
2022-09-06T00:38:36.460Z,8.90
2022-09-06T00:41:04.707Z,9.18
2022-09-06T00:43:33.046Z,10.10
2022-09-06T00:46:01.357Z,9.60
2022-09-06T00:48:29.909Z,9.20
2022-09-06T00:50:59.941Z,9.95
2022-09-06T00:53:27.703Z,9.27
2022-09-06T00:55:56.994Z,9.82
2022-09-06T00:58:25.380Z,9.20
2022-09-06T01:00:53.393Z,8.98
2022-09-06T01:03:22.444Z,9.60
2022-09-06T01:05:52.736Z,10.88
2022-09-06T01:08:58.754Z,10.80
2022-09-06T01:11:41.081Z,10.27
2022-09-06T01:14:24.731Z,10.48
2022-09-06T01:17:00.230Z,10.32
2022-09-06T01:19:33.248Z,10.65
2022-09-06T01:22:49.257Z,10.68
2022-09-06T01:25:26.704Z,10.20
2022-09-06T01:28:03.264Z,10.85
2022-09-06T01:30:34.079Z,11.18
2022-09-06T01:33:17.343Z,12.10
2022-09-06T01:35:48.785Z,12.68
2022-09-06T01:38:16.394Z,11.68
2022-09-06T01:40:46.072Z,10.63
2022-09-06T01:43:25.754Z,11.45
2022-09-06T01:46:05.595Z,13.00
2022-09-06T01:48:38.844Z,10.90
2022-09-06T01:51:22.226Z,9.40
2022-09-06T01:54:17.472Z,10.98
2022-09-06T01:57:26.657Z,10.95
2022-09-06T01:59:53.976Z,10.00
2022-09-06T02:02:45.691Z,11.85
2022-09-06T02:05:27.582Z,10.35
2022-09-06T02:07:59.090Z,10.63
2022-09-06T02:10:32.245Z,9.93
2022-09-06T02:13:01.147Z,8.80
2022-09-06T02:15:34.755Z,9.15
2022-09-06T02:18:10.410Z,9.52
2022-09-06T02:20:42.271Z,9.30
2022-09-06T02:23:12.265Z,9.27
2022-09-06T02:25:42.904Z,7.63
2022-09-06T02:28:10.895Z,7.20
2022-09-06T02:30:44.091Z,7.32
2022-09-06T02:33:16.708Z,7.93
2022-09-06T02:35:46.883Z,8.05
2022-09-06T02:38:14.738Z,7.43
2022-09-06T02:40:43.334Z,8.38
2022-09-06T02:43:10.734Z,8.05
2022-09-06T02:45:38.095Z,8.82
2022-09-06T02:48:05.545Z,8.07
2022-09-06T02:50:32.964Z,9.77
2022-09-06T02:53:12.096Z,8.77
2022-09-06T02:55:39.864Z,9.48
2022-09-06T02:58:10.722Z,9.65
2022-09-06T03:00:38.170Z,9.95
2022-09-06T03:03:05.850Z,9.57
2022-09-06T03:05:33.494Z,9.02
2022-09-06T03:08:00.877Z,8.65
2022-09-06T03:10:28.227Z,9.02
2022-09-06T03:12:55.731Z,9.20
2022-09-06T03:15:23.042Z,8.10
2022-09-06T03:17:50.396Z,7.80
2022-09-06T03:20:17.943Z,7.85
2022-09-06T03:22:45.171Z,8.15
2022-09-06T03:25:12.514Z,6.82
2022-09-06T03:27:41.449Z,7.70
2022-09-06T03:30:09.253Z,8.68
2022-09-06T03:32:36.718Z,8.02
2022-09-06T03:35:04.380Z,7.63
2022-09-06T03:37:31.743Z,7.00
2022-09-06T03:40:00.051Z,6.50
2022-09-06T03:42:28.194Z,5.40
2022-09-06T03:44:55.952Z,5.93
2022-09-06T03:47:23.776Z,5.70
2022-09-06T03:49:51.635Z,6.65
2022-09-06T03:52:19.212Z,5.47
2022-09-06T03:55:03.246Z,5.60
2022-09-06T03:57:30.719Z,5.10
2022-09-06T03:59:58.534Z,4.88
2022-09-06T04:02:26.050Z,4.88
2022-09-06T04:04:55.665Z,5.35
2022-09-06T04:07:23.434Z,4.85
2022-09-06T04:09:51.691Z,5.07
2022-09-06T04:12:18.971Z,5.50
2022-09-06T04:14:47.236Z,5.05
2022-09-06T04:17:14.846Z,4.43
2022-09-06T04:19:42.134Z,4.80
2022-09-06T04:22:09.787Z,4.72
2022-09-06T04:24:37.081Z,4.15
2022-09-06T04:27:04.739Z,4.35
2022-09-06T04:29:33.339Z,4.15
2022-09-06T04:32:00.894Z,4.10
2022-09-06T04:34:31.132Z,3.67
2022-09-06T04:36:58.750Z,4.60
2022-09-06T04:39:29.814Z,4.57
2022-09-06T04:41:58.385Z,4.20
2022-09-06T04:44:26.002Z,3.60
2022-09-06T04:47:08.798Z,4.63
2022-09-06T04:49:37.017Z,4.30
2022-09-06T04:52:07.654Z,4.20
2022-09-06T04:54:35.673Z,3.75
2022-09-06T04:57:04.530Z,3.53
2022-09-06T04:59:33.007Z,3.72
2022-09-06T05:02:07.729Z,3.45
2022-09-06T05:04:37.676Z,3.20
2022-09-06T05:07:07.539Z,4.00
2022-09-06T05:09:39.472Z,3.42
2022-09-06T05:12:09.617Z,3.38
2022-09-06T05:14:37.144Z,3.72
2022-09-06T05:17:06.658Z,3.13
2022-09-06T05:19:34.059Z,3.50
2022-09-06T05:22:01.468Z,3.10
2022-09-06T05:24:29.106Z,2.80
2022-09-06T05:26:56.896Z,3.00
2022-09-06T05:29:27.590Z,2.83
2022-09-06T05:31:58.965Z,2.30
2022-09-06T05:34:26.985Z,2.67
2022-09-06T05:37:03.362Z,2.70
2022-09-06T05:39:31.751Z,2.72
2022-09-06T05:42:19.863Z,2.90
2022-09-06T05:44:47.895Z,2.50
2022-09-06T05:47:15.332Z,2.80
2022-09-06T05:49:42.676Z,2.50
2022-09-06T05:52:10.504Z,2.65
2022-09-06T05:54:37.775Z,2.60
2022-09-06T05:57:07.675Z,2.58
2022-09-06T05:59:35.005Z,2.45
2022-09-06T06:02:07.058Z,2.17
2022-09-06T06:04:36.165Z,2.40
2022-09-06T06:07:03.643Z,2.05
2022-09-06T06:09:33.662Z,2.15
2022-09-06T06:12:03.712Z,2.35
2022-09-06T06:14:31.279Z,2.20
2022-09-06T06:16:58.958Z,2.15
2022-09-06T06:19:29.918Z,2.17
2022-09-06T06:22:06.622Z,2.25
2022-09-06T06:24:36.718Z,2.33
2022-09-06T06:27:04.380Z,2.20
2022-09-06T06:29:33.494Z,2.40
2022-09-06T06:32:01.296Z,2.28
2022-09-06T06:34:28.991Z,2.20
2022-09-06T06:36:59.270Z,1.95
2022-09-06T06:39:27.055Z,1.70
2022-09-06T06:41:54.618Z,2.17
2022-09-06T06:44:23.568Z,1.67
2022-09-06T06:46:52.252Z,1.77
2022-09-06T06:49:19.812Z,1.40
2022-09-06T06:51:47.238Z,1.23
2022-09-06T06:54:14.825Z,1.90
2022-09-06T06:56:47.815Z,1.27
2022-09-06T06:59:15.363Z,1.40
2022-09-06T07:01:45.966Z,1.40
2022-09-06T07:04:14.381Z,1.25
2022-09-06T07:12:31.980Z,1.20
2022-09-06T07:14:59.911Z,1.20
2022-09-06T07:17:33.266Z,1.30
2022-09-06T07:20:16.774Z,1.05
2022-09-06T07:22:47.478Z,1.00
2022-09-06T07:25:21.205Z,1.20
2022-09-06T07:28:07.390Z,0.90
2022-09-06T07:30:50.296Z,1.00
2022-09-06T07:33:20.558Z,1.00
2022-09-06T07:36:06.917Z,1.27
2022-09-06T07:38:40.878Z,1.17
2022-09-06T07:41:10.177Z,1.35
2022-09-06T07:43:38.474Z,1.10
2022-09-06T07:46:30.959Z,1.60
2022-09-06T07:48:58.467Z,4.63
2022-09-06T07:51:29.561Z,1.50
2022-09-06T07:54:26.393Z,1.20
2022-09-06T07:56:54.606Z,1.10
2022-09-06T07:59:22.432Z,1.20
2022-09-06T08:01:50.534Z,1.10
2022-09-06T08:04:19.440Z,1.00
2022-09-06T08:09:40.687Z,0.80
2022-09-06T08:12:08.617Z,1.00
2022-09-06T08:14:36.338Z,0.70
2022-09-06T08:17:12.746Z,1.10
2022-09-06T08:19:41.865Z,1.10
2022-09-06T08:22:12.185Z,1.00
2022-09-06T08:24:40.545Z,1.10
2022-09-06T08:27:08.198Z,0.90
2022-09-06T08:29:40.070Z,1.08
2022-09-06T08:32:11.940Z,1.10
2022-09-06T08:34:39.411Z,1.02
2022-09-06T08:37:07.548Z,1.00
2022-09-06T08:39:35.256Z,1.63
2022-09-06T08:42:06.918Z,1.23
2022-09-06T08:44:56.455Z,1.17
2022-09-06T08:47:25.462Z,1.00
2022-09-06T08:50:09.510Z,1.17
2022-09-06T08:53:18.586Z,0.98
2022-09-06T08:55:56.932Z,1.13
2022-09-06T08:58:30.243Z,1.10
2022-09-06T09:01:16.199Z,0.75
2022-09-06T09:03:46.913Z,0.90
2022-09-06T09:06:20.240Z,1.20
2022-09-06T09:09:07.941Z,0.73
2022-09-06T09:11:39.480Z,0.82
2022-09-06T09:14:23.293Z,0.77
2022-09-06T09:16:52.068Z,0.90
2022-09-06T09:19:19.733Z,0.70
2022-09-06T09:21:50.109Z,1.00
2022-09-06T09:24:17.830Z,0.88
2022-09-06T09:27:11.562Z,1.00
2022-09-06T09:32:47.996Z,0.80
2022-09-06T09:35:31.151Z,0.90
2022-09-06T09:38:20.895Z,0.80
2022-09-06T09:41:03.900Z,0.70
2022-09-06T09:43:35.374Z,0.88
2022-09-06T09:46:23.617Z,0.70
2022-09-06T09:49:02.797Z,0.88
2022-09-06T09:51:32.435Z,0.80
2022-09-06T09:54:03.950Z,0.90
2022-09-06T09:56:44.343Z,0.85
2022-09-06T09:59:20.876Z,0.80
2022-09-06T10:01:48.742Z,0.90
2022-09-06T10:07:21.068Z,0.65
2022-09-06T10:10:08.712Z,0.80
2022-09-06T10:12:41.461Z,0.70
2022-09-06T10:15:12.360Z,0.65
2022-09-06T10:17:51.603Z,0.68
2022-09-06T10:20:19.350Z,0.90
2022-09-06T10:22:56.653Z,0.63
2022-09-06T10:25:39.940Z,0.73
2022-09-06T10:28:26.367Z,0.70
2022-09-06T10:31:16.342Z,0.63
2022-09-06T10:34:17.584Z,0.68
2022-09-06T10:36:59.298Z,0.70
2022-09-06T10:39:47.618Z,0.60
2022-09-06T10:42:47.759Z,0.60
2022-09-06T10:45:37.726Z,0.63
2022-09-06T10:48:21.205Z,0.82
2022-09-06T10:50:50.989Z,0.70
2022-09-06T10:53:42.548Z,0.70
2022-09-06T10:56:13.699Z,1.45
2022-09-06T11:02:18.245Z,0.70
2022-09-06T11:10:40.320Z,0.73
2022-09-06T11:13:17.325Z,0.75
2022-09-06T11:16:15.016Z,0.80
2022-09-06T11:19:06.281Z,0.70
2022-09-06T11:21:47.742Z,0.90
2022-09-06T11:24:37.178Z,0.70
2022-09-06T11:27:22.995Z,0.70
2022-09-06T11:29:56.510Z,0.70
2022-09-06T11:32:38.531Z,0.90
2022-09-06T11:35:11.337Z,0.70
2022-09-06T11:37:43.106Z,1.10
2022-09-06T11:42:52.295Z,0.70
2022-09-06T11:45:44.582Z,0.77
2022-09-06T11:48:24.125Z,0.70
2022-09-06T11:50:54.739Z,1.42
2022-09-06T11:53:28.258Z,0.80
2022-09-06T11:56:02.139Z,0.73
2022-09-06T11:59:03.546Z,0.70
2022-09-06T12:01:30.912Z,0.80
2022-09-06T12:04:07.048Z,0.60
2022-09-06T12:07:00.120Z,0.60
2022-09-06T12:09:34.613Z,0.50
2022-09-06T12:12:05.330Z,0.65
2022-09-06T12:14:46.144Z,0.70
2022-09-06T12:17:13.600Z,1.48
2022-09-06T12:20:02.696Z,0.50
2022-09-06T12:22:31.134Z,0.70
2022-09-06T12:25:08.030Z,0.50
2022-09-06T12:27:44.376Z,1.20
2022-09-06T12:30:16.630Z,0.70
2022-09-06T12:32:47.552Z,0.50
2022-09-06T12:38:14.221Z,0.50
2022-09-06T12:40:48.873Z,0.40
2022-09-06T12:43:19.960Z,0.47
2022-09-06T12:45:50.794Z,0.32
2022-09-06T12:48:33.621Z,0.40
2022-09-06T12:51:06.515Z,0.45
2022-09-06T12:53:37.042Z,0.50
2022-09-06T12:56:15.255Z,0.70
2022-09-06T12:58:42.734Z,0.50
2022-09-06T13:01:24.173Z,0.50
2022-09-06T13:04:05.785Z,0.50
2022-09-06T13:06:37.675Z,0.40
2022-09-06T13:09:05.939Z,0.68
2022-09-06T13:11:38.752Z,1.00
2022-09-06T13:14:35.658Z,0.47
2022-09-06T13:17:09.378Z,1.10
2022-09-06T13:19:44.290Z,0.52
2022-09-06T13:22:38.748Z,0.50
2022-09-06T13:25:20.890Z,0.60
2022-09-06T13:27:51.315Z,0.52
2022-09-06T13:30:49.612Z,0.73
2022-09-06T13:33:35.337Z,0.70
2022-09-06T13:36:27.945Z,0.52
2022-09-06T13:38:55.736Z,0.65
2022-09-06T13:41:26.461Z,0.60
2022-09-06T13:44:05.390Z,0.52
2022-09-06T13:46:38.530Z,0.45
2022-09-06T13:49:06.242Z,0.70
2022-09-06T13:51:34.206Z,0.63
2022-09-06T13:54:16.146Z,0.50
2022-09-06T13:56:45.073Z,0.80
2022-09-06T13:59:13.032Z,1.00
2022-09-06T14:01:44.661Z,0.80
2022-09-06T14:04:15.731Z,0.70
2022-09-06T14:06:45.028Z,0.68
2022-09-06T14:09:12.709Z,0.60
2022-09-06T14:11:42.879Z,0.55
2022-09-06T14:14:14.096Z,0.80
2022-09-06T14:16:42.618Z,1.00
2022-09-06T14:19:11.382Z,0.80
2022-09-06T14:21:39.460Z,0.80
2022-09-06T14:24:11.227Z,0.68
2022-09-06T14:26:42.476Z,0.90
2022-09-06T14:29:10.238Z,0.90
2022-09-06T14:31:39.763Z,0.65
2022-09-06T14:34:13.219Z,0.80
2022-09-06T14:36:44.476Z,0.80
2022-09-06T14:39:12.113Z,0.70
2022-09-06T14:41:39.711Z,0.50
2022-09-06T14:44:07.569Z,0.70
2022-09-06T14:46:38.356Z,0.75
2022-09-06T14:49:10.105Z,0.77
2022-09-06T14:51:41.127Z,0.52
2022-09-06T14:54:10.972Z,0.60
2022-09-06T14:56:40.644Z,0.98
2022-09-06T14:59:09.294Z,0.70
2022-09-06T15:01:41.249Z,0.70
2022-09-06T15:04:11.150Z,1.52
2022-09-06T15:06:44.213Z,0.90
2022-09-06T15:09:12.313Z,1.38
2022-09-06T15:11:46.342Z,1.15
2022-09-06T15:14:20.433Z,0.70
2022-09-06T15:16:54.797Z,1.00
2022-09-06T15:19:25.943Z,0.63
2022-09-06T15:21:54.163Z,1.10
2022-09-06T15:24:21.800Z,1.20
2022-09-06T15:26:49.924Z,1.00
2022-09-06T15:29:17.521Z,0.65
2022-09-06T15:31:50.301Z,0.70
2022-09-06T15:34:22.479Z,1.13
2022-09-06T15:36:51.245Z,0.90
2022-09-06T15:39:18.994Z,19.35
2022-09-06T15:41:50.229Z,0.82
2022-09-06T15:44:19.769Z,0.85
2022-09-06T15:46:50.192Z,1.10
2022-09-06T15:49:29.051Z,1.05
2022-09-06T15:51:58.298Z,0.90
2022-09-06T15:54:45.494Z,0.90
2022-09-06T15:57:17.460Z,1.10
2022-09-06T15:59:45.599Z,1.00
2022-09-06T16:02:13.885Z,1.33
2022-09-06T16:04:41.454Z,0.77
2022-09-06T16:07:10.083Z,0.90
2022-09-06T16:09:37.807Z,0.80
2022-09-06T16:12:05.907Z,0.90
2022-09-06T16:14:35.778Z,0.80
2022-09-06T16:17:03.503Z,2.08
2022-09-06T16:19:30.904Z,0.70
2022-09-06T16:21:59.073Z,1.60
2022-09-06T16:24:26.674Z,1.05
2022-09-06T16:26:54.149Z,1.00
2022-09-06T16:29:24.919Z,1.70
2022-09-06T16:31:59.659Z,1.20
2022-09-06T16:34:27.533Z,1.08
2022-09-06T16:36:57.052Z,1.00
2022-09-06T16:39:24.754Z,1.08
2022-09-06T16:41:54.357Z,1.20
2022-09-06T16:44:21.769Z,1.00
2022-09-06T16:46:50.605Z,1.25
2022-09-06T16:49:19.609Z,1.10
2022-09-06T16:51:48.868Z,0.80
2022-09-06T16:54:16.925Z,0.98
2022-09-06T16:56:44.961Z,0.90
2022-09-06T16:59:13.153Z,0.98
2022-09-06T17:01:44.695Z,1.58
2022-09-06T17:04:13.268Z,1.38
2022-09-06T17:06:45.058Z,1.20
2022-09-06T17:09:14.981Z,1.20
2022-09-06T17:11:42.937Z,1.15
2022-09-06T17:14:11.556Z,1.20
2022-09-06T17:16:57.700Z,1.60
2022-09-06T17:19:32.011Z,0.95
2022-09-06T17:22:02.837Z,1.40
2022-09-06T17:24:31.195Z,1.30
2022-09-06T17:26:58.938Z,1.27
2022-09-06T17:29:27.920Z,1.30
2022-09-06T17:31:56.249Z,1.20
2022-09-06T17:34:26.679Z,1.08
2022-09-06T17:36:54.397Z,0.88
2022-09-06T17:39:21.850Z,1.10
2022-09-06T17:41:52.337Z,1.20
2022-09-06T17:44:22.308Z,1.20
2022-09-06T17:47:12.021Z,1.15
2022-09-06T17:49:41.137Z,1.00
2022-09-06T17:52:12.199Z,1.50
2022-09-06T17:54:39.829Z,1.38
2022-09-06T17:57:25.675Z,1.40
2022-09-06T17:59:55.376Z,1.55
2022-09-06T18:02:25.891Z,0.90
2022-09-06T18:04:53.234Z,1.48
2022-09-06T18:07:23.243Z,1.40
2022-09-06T18:09:54.757Z,1.20
2022-09-06T18:12:24.439Z,1.58
2022-09-06T18:14:56.842Z,1.63
2022-09-06T18:17:40.125Z,1.60
2022-09-06T18:20:08.453Z,1.80
2022-09-06T18:22:40.309Z,1.60
2022-09-06T18:25:08.911Z,1.80
2022-09-06T18:27:49.160Z,1.60
2022-09-06T18:30:29.898Z,1.60
2022-09-06T18:33:29.486Z,1.50
2022-09-06T18:35:57.070Z,1.38
2022-09-06T18:38:24.552Z,1.73
2022-09-06T18:40:53.607Z,1.75
2022-09-06T18:43:22.258Z,1.90
2022-09-06T18:45:53.695Z,1.60
2022-09-06T18:48:21.198Z,2.20
2022-09-06T18:50:48.611Z,1.60
2022-09-06T18:53:18.268Z,2.03
2022-09-06T18:55:45.805Z,2.88
2022-09-06T18:58:14.299Z,2.13
2022-09-06T19:00:52.396Z,2.67
2022-09-06T19:03:21.544Z,4.07
2022-09-06T19:08:52.882Z,2.40
2022-09-06T19:11:21.672Z,3.22
2022-09-06T19:13:53.931Z,3.08
2022-09-06T19:16:22.705Z,1.98
2022-09-06T19:18:51.603Z,3.22
2022-09-06T19:21:20.226Z,2.67
2022-09-06T19:23:56.545Z,2.60
2022-09-06T19:26:25.190Z,3.95
2022-09-06T19:28:56.393Z,2.63
2022-09-06T19:31:25.549Z,2.40
2022-09-06T19:33:57.335Z,3.10
2022-09-06T19:36:25.869Z,2.72
2022-09-06T19:39:03.544Z,2.83
2022-09-06T19:41:36.911Z,2.50
2022-09-06T19:44:08.813Z,3.35
2022-09-06T19:46:37.315Z,2.78
2022-09-06T19:49:05.513Z,14.25
2022-09-06T19:51:35.802Z,14.32
2022-09-06T19:54:03.676Z,3.95
2022-09-06T19:56:34.380Z,3.20
2022-09-06T19:59:06.141Z,2.53
2022-09-06T20:01:39.654Z,3.05
2022-09-06T20:04:14.678Z,2.13
2022-09-06T20:06:46.102Z,2.38
2022-09-06T20:09:15.491Z,2.55
2022-09-06T20:11:44.326Z,2.20
2022-09-06T20:14:12.503Z,2.10
2022-09-06T20:16:42.463Z,2.50
2022-09-06T20:19:12.225Z,3.08
2022-09-06T20:21:40.303Z,4.03
2022-09-06T20:24:12.107Z,2.60
2022-09-06T20:26:47.091Z,2.50
2022-09-06T20:29:14.607Z,2.40
2022-09-06T20:31:42.253Z,2.20
2022-09-06T20:34:10.834Z,2.33
2022-09-06T20:36:39.108Z,2.60
2022-09-06T20:39:06.477Z,1.90
2022-09-06T20:41:37.623Z,2.45
2022-09-06T20:44:07.979Z,1.95
2022-09-06T20:46:36.192Z,1.67
2022-09-06T20:49:05.142Z,1.95
2022-09-06T20:51:35.656Z,1.80
2022-09-06T20:54:05.396Z,1.80
2022-09-06T20:56:39.259Z,1.50
2022-09-06T20:59:10.318Z,1.50
2022-09-06T21:01:40.849Z,1.88
2022-09-06T21:04:09.878Z,2.05
2022-09-06T21:06:38.656Z,1.95
2022-09-06T21:09:10.494Z,1.75
2022-09-06T21:11:39.786Z,3.50
2022-09-06T21:14:11.621Z,6.22
2022-09-06T21:16:40.793Z,1.73
2022-09-06T21:19:09.844Z,2.03
2022-09-06T21:21:38.759Z,1.90
2022-09-06T21:24:07.349Z,1.60
2022-09-06T21:26:35.971Z,1.98
2022-09-06T21:29:04.117Z,2.50
2022-09-06T21:31:33.874Z,2.10
2022-09-06T21:34:05.048Z,2.20
2022-09-06T21:36:37.431Z,1.98
2022-09-06T21:39:09.651Z,2.17
2022-09-06T21:41:38.725Z,3.38
2022-09-06T21:44:06.945Z,4.05
2022-09-06T21:46:36.268Z,5.93
2022-09-06T21:49:07.272Z,6.20
2022-09-06T21:51:35.093Z,5.75
2022-09-06T21:54:05.079Z,2.05
2022-09-06T21:56:35.754Z,4.43
2022-09-06T21:59:04.776Z,3.40
2022-09-06T22:01:36.862Z,4.43
2022-09-06T22:04:05.169Z,4.20
2022-09-06T22:06:34.534Z,3.30
2022-09-06T22:09:04.898Z,3.35
2022-09-06T22:11:35.613Z,3.60
2022-09-06T22:14:06.580Z,4.13
2022-09-06T22:16:38.876Z,3.63
2022-09-06T22:19:07.340Z,3.42
2022-09-06T22:21:35.092Z,3.90
2022-09-06T22:24:06.610Z,3.88
2022-09-06T22:26:35.474Z,3.25
2022-09-06T22:29:05.784Z,3.70
2022-09-06T22:31:34.317Z,3.55
2022-09-06T22:34:02.785Z,3.70
2022-09-06T22:36:32.465Z,3.40
2022-09-06T22:38:59.969Z,3.63
2022-09-06T22:41:29.789Z,3.50
2022-09-06T22:43:57.259Z,4.05
2022-09-06T22:46:24.629Z,3.80
2022-09-06T22:48:52.404Z,3.53
2022-09-06T22:51:19.711Z,3.70
2022-09-06T22:53:47.763Z,4.13
2022-09-06T22:56:15.034Z,3.53
2022-09-06T22:58:42.282Z,4.00
2022-09-06T23:01:13.954Z,3.30
2022-09-06T23:03:42.354Z,3.53
2022-09-06T23:06:10.250Z,3.40
2022-09-06T23:08:38.963Z,3.55
2022-09-06T23:11:08.763Z,3.92
2022-09-06T23:13:36.270Z,3.22
2022-09-06T23:16:05.930Z,3.50
2022-09-06T23:18:33.941Z,3.38
2022-09-06T23:21:08.998Z,3.70
2022-09-06T23:23:38.328Z,3.05
2022-09-06T23:26:08.267Z,3.50
2022-09-06T23:28:36.910Z,3.78
2022-09-06T23:31:08.713Z,3.78
2022-09-06T23:33:37.428Z,3.33
2022-09-06T23:36:08.824Z,2.97
2022-09-06T23:38:37.537Z,3.50
2022-09-06T23:41:06.020Z,3.53
2022-09-06T23:43:34.141Z,3.47
2022-09-06T23:46:01.524Z,3.75
2022-09-06T23:48:29.172Z,3.88
2022-09-06T23:50:56.732Z,3.88
2022-09-06T23:53:24.612Z,4.20
2022-09-06T23:55:52.235Z,3.65
2022-09-06T23:58:19.745Z,7.20
